createdAt,value
2023-03-26T00:01:16.572Z,1.80
2023-03-26T00:03:43.629Z,1.20
2023-03-26T00:06:15.483Z,1.10
2023-03-26T00:08:43.676Z,1.58
2023-03-26T00:11:13.863Z,1.42
2023-03-26T00:13:41.442Z,1.40
2023-03-26T00:16:20.150Z,1.25
2023-03-26T00:18:46.579Z,1.33
2023-03-26T00:21:16.196Z,1.08
2023-03-26T00:23:45.165Z,1.75
2023-03-26T00:26:15.349Z,1.50
2023-03-26T00:28:42.648Z,2.15
2023-03-26T00:31:12.662Z,1.48
2023-03-26T00:33:40.674Z,1.33
2023-03-26T00:36:12.379Z,1.20
2023-03-26T00:38:48.894Z,1.25
2023-03-26T00:41:17.903Z,1.75
2023-03-26T00:43:46.085Z,1.70
2023-03-26T00:46:15.520Z,1.33
2023-03-26T00:48:47.460Z,0.88
2023-03-26T00:51:15.772Z,1.60
2023-03-26T00:53:46.499Z,1.48
2023-03-26T00:58:44.942Z,2.28
2023-03-26T01:01:17.190Z,1.90
2023-03-26T01:03:53.642Z,1.52
2023-03-26T01:06:29.867Z,2.25
2023-03-26T01:08:56.616Z,2.22
2023-03-26T01:11:27.444Z,2.60
2023-03-26T01:14:07.258Z,2.00
2023-03-26T01:16:42.685Z,2.35
2023-03-26T01:19:20.079Z,2.05
2023-03-26T01:21:47.405Z,2.17
2023-03-26T01:24:16.495Z,1.80
2023-03-26T01:26:42.790Z,2.90
2023-03-26T01:29:19.942Z,3.05
2023-03-26T01:32:20.632Z,2.97
2023-03-26T01:35:03.509Z,2.80
2023-03-26T01:37:40.430Z,2.35
2023-03-26T01:40:26.730Z,2.33
2023-03-26T01:43:37.729Z,2.05
2023-03-26T01:46:07.344Z,3.40
2023-03-26T01:48:40.222Z,2.70
2023-03-26T01:51:12.071Z,3.17
2023-03-26T01:53:46.352Z,2.83
2023-03-26T01:56:26.959Z,2.47
2023-03-26T01:59:33.047Z,2.88
2023-03-26T02:02:02.957Z,2.95
2023-03-26T02:04:45.848Z,2.08
2023-03-26T02:07:49.896Z,2.60
2023-03-26T02:10:38.686Z,2.55
2023-03-26T02:13:06.383Z,2.55
2023-03-26T02:15:35.559Z,2.92
2023-03-26T02:18:01.958Z,2.95
2023-03-26T02:20:28.297Z,2.97
2023-03-26T02:22:58.549Z,2.28
2023-03-26T02:25:29.654Z,2.90
2023-03-26T02:27:55.950Z,3.30
2023-03-26T02:30:24.909Z,1.90
2023-03-26T02:32:52.552Z,3.30
2023-03-26T02:35:21.606Z,2.95
2023-03-26T02:37:48.241Z,3.20
2023-03-26T02:40:14.721Z,3.15
2023-03-26T02:42:45.089Z,2.50
2023-03-26T02:45:11.404Z,3.25
2023-03-26T02:47:37.759Z,2.25
2023-03-26T02:50:04.632Z,3.42
2023-03-26T02:52:31.414Z,3.22
2023-03-26T02:54:57.711Z,3.08
2023-03-26T02:57:27.086Z,3.20
2023-03-26T02:59:56.210Z,3.45
2023-03-26T03:02:22.833Z,3.55
2023-03-26T03:04:49.222Z,3.35
2023-03-26T03:07:17.906Z,3.35
2023-03-26T03:09:46.748Z,3.67
2023-03-26T03:12:13.051Z,2.58
2023-03-26T03:14:40.557Z,3.55
2023-03-26T03:17:08.373Z,4.53
2023-03-26T03:19:34.675Z,3.75
2023-03-26T03:22:00.990Z,4.20
2023-03-26T03:24:27.343Z,4.00
2023-03-26T03:26:53.841Z,3.80
2023-03-26T03:29:27.493Z,3.92
2023-03-26T03:31:53.844Z,4.20
2023-03-26T03:34:20.146Z,3.83
2023-03-26T03:36:46.501Z,3.97
2023-03-26T03:39:19.343Z,4.13
2023-03-26T03:41:50.037Z,4.07
2023-03-26T03:44:16.338Z,4.47
2023-03-26T03:46:42.701Z,3.90
2023-03-26T03:49:09.078Z,3.90
2023-03-26T03:51:35.359Z,5.05
2023-03-26T03:54:01.712Z,4.75
2023-03-26T03:56:30.478Z,4.93
2023-03-26T03:58:56.822Z,5.35
2023-03-26T04:01:25.621Z,4.63
2023-03-26T04:03:54.356Z,4.65
2023-03-26T04:06:20.756Z,5.20
2023-03-26T04:08:47.164Z,4.40
2023-03-26T04:11:19.000Z,5.15
2023-03-26T04:13:45.392Z,4.35
2023-03-26T04:16:14.178Z,4.97
2023-03-26T04:18:40.964Z,6.50
2023-03-26T04:21:07.665Z,4.78
2023-03-26T04:23:34.500Z,4.97
2023-03-26T04:26:04.693Z,5.05
2023-03-26T04:28:30.990Z,5.45
2023-03-26T04:30:59.750Z,5.13
2023-03-26T04:33:35.058Z,5.13
2023-03-26T04:36:03.479Z,4.40
2023-03-26T04:38:31.674Z,4.32
2023-03-26T04:40:58.006Z,5.47
2023-03-26T04:43:24.340Z,5.10
2023-03-26T04:45:50.658Z,4.82
2023-03-26T04:48:18.736Z,4.93
2023-03-26T04:50:45.626Z,5.18
2023-03-26T04:53:15.452Z,4.75
2023-03-26T04:55:49.693Z,4.72
2023-03-26T04:58:16.268Z,4.97
2023-03-26T05:00:45.428Z,4.50
2023-03-26T05:03:12.436Z,4.57
2023-03-26T05:05:40.029Z,4.32
2023-03-26T05:08:06.529Z,5.55
2023-03-26T05:10:36.424Z,4.97
2023-03-26T05:13:03.887Z,5.03
2023-03-26T05:15:30.193Z,5.38
2023-03-26T05:17:57.767Z,5.32
2023-03-26T05:20:27.603Z,4.63
2023-03-26T05:22:54.002Z,5.50
2023-03-26T05:25:25.669Z,4.72
2023-03-26T05:27:52.130Z,5.88
2023-03-26T05:30:24.648Z,6.43
2023-03-26T05:32:53.485Z,5.97
2023-03-26T05:35:20.946Z,5.43
2023-03-26T05:37:50.119Z,5.85
2023-03-26T05:40:17.098Z,6.25
2023-03-26T05:42:45.073Z,6.63
2023-03-26T05:45:15.796Z,6.43
2023-03-26T05:50:09.942Z,4.47
2023-03-26T05:52:39.733Z,4.03
2023-03-26T05:55:13.356Z,5.20
2023-03-26T05:57:42.241Z,4.75
2023-03-26T06:00:08.998Z,5.00
2023-03-26T06:02:39.323Z,5.07
2023-03-26T06:05:05.998Z,5.07
2023-03-26T06:07:32.326Z,5.55
2023-03-26T06:10:01.336Z,5.60
2023-03-26T06:12:29.979Z,4.93
2023-03-26T06:14:56.264Z,4.68
2023-03-26T06:17:22.622Z,5.18
2023-03-26T06:19:51.302Z,4.90
2023-03-26T06:22:18.812Z,5.72
2023-03-26T06:24:45.118Z,4.72
2023-03-26T06:27:11.478Z,4.93
2023-03-26T06:29:37.887Z,4.53
2023-03-26T06:32:16.262Z,6.00
2023-03-26T06:34:45.741Z,4.63
2023-03-26T06:37:16.736Z,4.93
2023-03-26T06:39:43.098Z,5.20
2023-03-26T06:42:09.411Z,3.92
2023-03-26T06:44:35.748Z,4.13
2023-03-26T06:47:02.099Z,4.60
2023-03-26T06:49:28.580Z,4.18
2023-03-26T06:51:54.917Z,4.20
2023-03-26T06:54:21.204Z,4.53
2023-03-26T06:56:47.530Z,3.97
2023-03-26T06:59:13.837Z,3.80
2023-03-26T07:01:41.556Z,4.00
2023-03-26T07:04:07.911Z,3.47
2023-03-26T07:06:34.357Z,3.60
2023-03-26T07:09:03.516Z,3.85
2023-03-26T07:11:29.902Z,4.13
2023-03-26T07:13:59.217Z,4.38
2023-03-26T07:16:30.950Z,3.58
2023-03-26T07:19:07.074Z,3.03
2023-03-26T07:21:36.235Z,2.92
2023-03-26T07:24:05.798Z,2.90
2023-03-26T07:27:06.019Z,3.70
2023-03-26T07:29:43.163Z,3.63
2023-03-26T07:32:22.832Z,3.35
2023-03-26T07:35:08.027Z,4.10
2023-03-26T07:37:48.911Z,4.07
2023-03-26T07:40:53.124Z,3.65
2023-03-26T07:43:37.963Z,4.55
2023-03-26T07:46:11.005Z,3.33
2023-03-26T07:48:45.877Z,4.22
2023-03-26T07:51:12.845Z,3.78
2023-03-26T07:53:39.434Z,4.53
2023-03-26T07:56:11.580Z,5.50
2023-03-26T07:59:01.782Z,4.55
2023-03-26T08:01:52.701Z,5.18
2023-03-26T08:04:43.272Z,4.93
2023-03-26T08:07:41.868Z,5.05
2023-03-26T08:10:40.313Z,5.30
2023-03-26T08:13:34.150Z,5.50
2023-03-26T08:16:10.368Z,5.03
2023-03-26T08:19:15.381Z,5.43
2023-03-26T08:21:59.177Z,6.18
2023-03-26T08:25:03.247Z,5.28
2023-03-26T08:27:40.194Z,4.47
2023-03-26T08:30:18.613Z,5.15
2023-03-26T08:33:09.419Z,5.13
2023-03-26T08:35:37.092Z,4.60
2023-03-26T08:38:03.586Z,5.45
2023-03-26T08:40:44.854Z,6.60
2023-03-26T08:43:39.239Z,4.32
2023-03-26T08:46:14.670Z,5.28
2023-03-26T08:49:18.171Z,5.00
2023-03-26T08:52:08.466Z,5.60
2023-03-26T08:54:47.619Z,4.63
2023-03-26T08:57:50.389Z,4.75
2023-03-26T09:00:46.565Z,5.70
2023-03-26T09:03:36.597Z,4.43
2023-03-26T09:07:01.865Z,4.22
2023-03-26T09:09:40.130Z,5.20
2023-03-26T09:12:27.382Z,5.47
2023-03-26T09:15:12.699Z,5.88
2023-03-26T09:17:52.609Z,5.43
2023-03-26T09:20:47.651Z,6.55
2023-03-26T09:23:40.006Z,6.63
2023-03-26T09:26:32.054Z,8.88
2023-03-26T09:29:21.281Z,8.38
2023-03-26T09:31:59.509Z,9.70
2023-03-26T09:34:41.486Z,7.43
2023-03-26T09:37:24.829Z,7.90
2023-03-26T09:40:13.782Z,6.85
2023-03-26T09:42:49.400Z,8.48
2023-03-26T09:45:52.337Z,7.82
2023-03-26T09:48:41.115Z,7.60
2023-03-26T09:51:07.621Z,8.55
2023-03-26T09:54:05.083Z,8.18
2023-03-26T09:56:50.072Z,7.93
2023-03-26T09:59:49.600Z,7.10
2023-03-26T10:03:02.117Z,6.97
2023-03-26T10:05:44.437Z,6.30
2023-03-26T10:08:22.828Z,6.47
2023-03-26T10:10:59.253Z,5.85
2023-03-26T10:13:25.653Z,7.22
2023-03-26T10:16:13.252Z,6.00
2023-03-26T10:19:21.258Z,5.68
2023-03-26T10:22:13.278Z,7.15
2023-03-26T10:24:48.458Z,5.90
2023-03-26T10:27:26.521Z,5.32
2023-03-26T10:30:37.288Z,5.57
2023-03-26T10:33:22.436Z,5.07
2023-03-26T10:36:13.047Z,5.20
2023-03-26T10:39:04.450Z,4.97
2023-03-26T10:41:49.557Z,4.55
2023-03-26T10:44:38.045Z,5.05
2023-03-26T10:50:06.077Z,4.68
2023-03-26T10:52:41.502Z,4.22
2023-03-26T10:55:15.276Z,4.22
2023-03-26T10:57:48.976Z,3.65
2023-03-26T11:00:26.629Z,3.45
2023-03-26T11:03:12.852Z,3.88
2023-03-26T11:06:17.260Z,3.63
2023-03-26T11:09:01.620Z,3.15
2023-03-26T11:11:31.711Z,3.85
2023-03-26T11:14:28.221Z,3.42
2023-03-26T11:17:40.795Z,3.08
2023-03-26T11:20:20.214Z,2.83
2023-03-26T11:23:03.557Z,2.40
2023-03-26T11:25:45.028Z,3.17
2023-03-26T11:28:41.127Z,2.65
2023-03-26T11:31:37.734Z,2.33
2023-03-26T11:34:13.181Z,2.67
2023-03-26T11:36:46.138Z,2.25
2023-03-26T11:39:20.513Z,2.15
2023-03-26T11:41:49.654Z,1.98
2023-03-26T11:45:00.482Z,2.35
2023-03-26T11:47:33.965Z,2.30
2023-03-26T11:50:04.589Z,2.75
2023-03-26T11:52:30.918Z,2.00
2023-03-26T11:55:05.980Z,2.35
2023-03-26T11:57:36.684Z,2.28
2023-03-26T12:00:11.877Z,2.25
2023-03-26T12:02:41.323Z,1.88
2023-03-26T12:05:20.125Z,1.90
2023-03-26T12:07:52.974Z,2.08
2023-03-26T12:10:39.386Z,2.17
2023-03-26T12:13:28.291Z,1.85
2023-03-26T12:16:09.841Z,1.95
2023-03-26T12:18:41.640Z,2.47
2023-03-26T12:21:18.892Z,1.52
2023-03-26T12:23:45.132Z,1.95
2023-03-26T12:26:16.494Z,2.70
2023-03-26T12:28:50.641Z,2.63
2023-03-26T12:31:19.792Z,3.00
2023-03-26T12:34:06.105Z,2.25
2023-03-26T12:36:34.798Z,2.03
2023-03-26T12:40:11.854Z,1.80
2023-03-26T12:44:46.870Z,2.38
2023-03-26T12:45:17.966Z,2.10
2023-03-26T12:47:59.790Z,1.63
2023-03-26T12:50:45.218Z,1.73
2023-03-26T12:53:27.910Z,1.73
2023-03-26T12:56:24.217Z,1.30
2023-03-26T12:59:08.758Z,1.25
2023-03-26T13:02:26.456Z,0.90
2023-03-26T13:05:06.820Z,1.77
2023-03-26T13:07:36.953Z,1.27
2023-03-26T13:10:27.998Z,1.70
2023-03-26T13:13:41.627Z,1.10
2023-03-26T13:16:42.039Z,1.38
2023-03-26T13:19:20.785Z,1.15
2023-03-26T13:21:51.751Z,1.30
2023-03-26T13:24:53.268Z,0.80
2023-03-26T13:27:31.179Z,0.60
2023-03-26T13:30:20.133Z,0.85
2023-03-26T13:32:52.389Z,1.17
2023-03-26T13:35:36.862Z,0.90
2023-03-26T13:38:06.145Z,1.50
2023-03-26T13:40:41.523Z,1.00
2023-03-26T13:43:34.090Z,1.20
2023-03-26T13:46:17.204Z,1.10
2023-03-26T13:48:59.769Z,1.08
2023-03-26T13:51:40.281Z,0.73
2023-03-26T13:54:19.196Z,1.00
2023-03-26T13:56:59.665Z,0.98
2023-03-26T13:59:39.468Z,0.88
2023-03-26T14:02:14.896Z,0.73
2023-03-26T14:04:47.521Z,0.80
2023-03-26T14:07:32.572Z,0.80
2023-03-26T14:10:06.201Z,0.80
2023-03-26T14:13:04.522Z,0.43
2023-03-26T14:15:37.334Z,1.23
2023-03-26T14:18:28.781Z,1.35
2023-03-26T14:21:14.013Z,1.23
2023-03-26T14:24:18.771Z,0.95
2023-03-26T14:27:09.694Z,0.63
2023-03-26T14:29:56.224Z,0.63
2023-03-26T14:32:43.139Z,0.75
2023-03-26T14:35:37.822Z,1.30
2023-03-26T14:38:26.329Z,1.23
2023-03-26T14:44:17.281Z,0.82
2023-03-26T14:46:58.673Z,0.68
2023-03-26T14:50:03.755Z,0.70
2023-03-26T14:52:52.060Z,0.90
2023-03-26T14:55:40.849Z,0.68
2023-03-26T14:58:15.245Z,0.85
2023-03-26T15:01:22.426Z,0.40
2023-03-26T15:04:26.323Z,1.00
2023-03-26T15:07:32.857Z,0.80
2023-03-26T15:10:25.490Z,1.20
2023-03-26T15:13:20.933Z,1.05
2023-03-26T15:16:09.545Z,0.85
2023-03-26T15:18:50.421Z,0.73
2023-03-26T15:21:51.015Z,1.00
2023-03-26T15:24:42.821Z,0.95
2023-03-26T15:27:21.348Z,0.40
2023-03-26T15:30:16.397Z,1.00
2023-03-26T15:33:14.820Z,0.80
2023-03-26T15:36:27.996Z,0.90
2023-03-26T15:39:32.063Z,0.75
2023-03-26T15:42:16.591Z,0.90
2023-03-26T15:44:54.532Z,0.60
2023-03-26T15:47:48.146Z,0.68
2023-03-26T15:50:57.557Z,0.52
2023-03-26T15:53:49.798Z,0.70
2023-03-26T15:56:36.078Z,0.52
2023-03-26T15:59:41.290Z,1.05
2023-03-26T16:02:13.670Z,1.00
2023-03-26T16:04:59.519Z,0.90
2023-03-26T16:08:12.089Z,0.85
2023-03-26T16:10:58.393Z,1.05
2023-03-26T16:13:41.483Z,1.13
2023-03-26T16:16:14.464Z,0.60
2023-03-26T16:18:57.888Z,0.52
2023-03-26T16:21:38.938Z,0.50
2023-03-26T16:24:05.388Z,0.52
2023-03-26T16:26:31.836Z,0.90
2023-03-26T16:29:10.220Z,1.40
2023-03-26T16:31:38.704Z,0.80
2023-03-26T16:34:05.759Z,1.00
2023-03-26T16:36:35.970Z,0.88
2023-03-26T16:39:08.245Z,0.90
2023-03-26T16:41:55.712Z,0.70
2023-03-26T16:45:00.746Z,0.95
2023-03-26T16:47:59.172Z,0.50
2023-03-26T16:50:49.801Z,0.50
2023-03-26T16:53:39.252Z,0.47
2023-03-26T16:56:20.902Z,0.65
2023-03-26T16:58:59.728Z,0.60
2023-03-26T17:01:34.971Z,0.65
2023-03-26T17:04:09.611Z,0.50
2023-03-26T17:06:55.193Z,0.75
2023-03-26T17:09:51.985Z,0.70
2023-03-26T17:12:31.436Z,1.00
2023-03-26T17:15:03.892Z,0.77
2023-03-26T17:18:01.207Z,0.52
2023-03-26T17:20:37.240Z,0.40
2023-03-26T17:23:09.849Z,0.43
2023-03-26T17:25:44.237Z,0.47
2023-03-26T17:28:34.424Z,0.45
2023-03-26T17:31:21.678Z,0.52
2023-03-26T17:33:52.044Z,0.40
2023-03-26T17:36:42.854Z,0.75
2023-03-26T17:39:21.836Z,0.90
2023-03-26T17:42:18.204Z,0.77
2023-03-26T17:45:01.119Z,0.60
2023-03-26T17:47:29.297Z,0.40
2023-03-26T17:50:05.096Z,0.40
2023-03-26T17:52:48.025Z,0.57
2023-03-26T17:55:25.770Z,0.65
2023-03-26T17:57:57.856Z,0.82
2023-03-26T18:00:31.498Z,0.40
2023-03-26T18:03:06.022Z,0.30
2023-03-26T18:05:35.766Z,0.70
2023-03-26T18:08:29.991Z,0.73
2023-03-26T18:11:18.141Z,1.42
2023-03-26T18:14:07.621Z,0.38
2023-03-26T18:17:12.572Z,0.73
2023-03-26T18:20:07.868Z,0.47
2023-03-26T18:22:34.801Z,0.82
2023-03-26T18:25:02.505Z,0.57
2023-03-26T18:27:36.221Z,0.63
2023-03-26T18:30:17.179Z,0.43
2023-03-26T18:33:12.097Z,0.40
2023-03-26T18:35:53.390Z,0.63
2023-03-26T18:38:36.780Z,0.75
2023-03-26T18:41:05.884Z,0.30
2023-03-26T18:43:44.606Z,0.20
2023-03-26T18:46:14.172Z,0.82
2023-03-26T18:48:42.491Z,0.55
2023-03-26T18:51:12.686Z,0.70
2023-03-26T18:53:50.366Z,0.40
2023-03-26T18:56:42.575Z,0.50
2023-03-26T18:59:35.826Z,0.10
2023-03-26T19:02:14.050Z,0.60
2023-03-26T19:04:52.698Z,0.50
2023-03-26T19:07:23.650Z,0.68
2023-03-26T19:09:51.694Z,0.63
2023-03-26T19:12:22.910Z,0.50
2023-03-26T19:15:09.800Z,0.82
2023-03-26T19:17:44.216Z,0.68
2023-03-26T19:20:20.786Z,0.43
2023-03-26T19:22:48.198Z,0.40
2023-03-26T19:25:41.162Z,0.45
2023-03-26T19:28:16.360Z,0.50
2023-03-26T19:30:42.858Z,0.57
2023-03-26T19:33:22.995Z,0.15
2023-03-26T19:36:01.737Z,0.80
2023-03-26T19:38:29.830Z,0.47
2023-03-26T19:41:00.284Z,0.40
2023-03-26T19:43:27.223Z,0.88
2023-03-26T19:46:00.470Z,0.40
2023-03-26T19:48:45.796Z,0.60
2023-03-26T19:51:22.158Z,0.60
2023-03-26T19:53:52.963Z,0.40
2023-03-26T19:56:20.677Z,0.57
2023-03-26T19:58:47.828Z,0.90
2023-03-26T20:01:25.875Z,0.43
2023-03-26T20:03:56.174Z,0.35
2023-03-26T20:06:33.992Z,0.43
2023-03-26T20:09:05.850Z,0.63
2023-03-26T20:11:35.098Z,0.47
2023-03-26T20:14:16.390Z,0.38
2023-03-26T20:16:45.197Z,0.73
2023-03-26T20:19:12.573Z,0.60
2023-03-26T20:21:38.879Z,0.30
2023-03-26T20:24:12.433Z,0.43
2023-03-26T20:26:38.802Z,0.38
2023-03-26T20:29:06.324Z,0.45
2023-03-26T20:31:32.733Z,0.47
2023-03-26T20:34:01.473Z,0.60
2023-03-26T20:36:33.136Z,0.70
2023-03-26T20:39:02.658Z,0.77
2023-03-26T20:41:29.065Z,0.47
2023-03-26T20:43:56.856Z,0.43
2023-03-26T20:46:31.303Z,0.15
2023-03-26T20:49:00.579Z,0.20
2023-03-26T20:51:27.085Z,0.95
2023-03-26T20:53:53.477Z,0.30
2023-03-26T20:56:20.397Z,0.60
2023-03-26T20:58:50.579Z,0.47
2023-03-26T21:01:21.410Z,0.30
2023-03-26T21:03:47.741Z,0.70
2023-03-26T21:06:17.169Z,0.50
2023-03-26T21:08:45.026Z,0.13
2023-03-26T21:11:26.471Z,0.68
2023-03-26T21:14:05.832Z,0.40
2023-03-26T21:16:32.791Z,0.50
2023-03-26T21:18:59.452Z,0.57
2023-03-26T21:21:45.461Z,0.65
2023-03-26T21:24:23.257Z,0.70
2023-03-26T21:26:57.056Z,0.40
2023-03-26T21:29:23.682Z,0.45
2023-03-26T21:31:51.607Z,0.47
2023-03-26T21:34:20.130Z,0.52
2023-03-26T21:36:46.653Z,0.60
2023-03-26T21:39:13.250Z,0.50
2023-03-26T21:42:05.479Z,0.38
2023-03-26T21:44:35.211Z,0.25
2023-03-26T21:47:01.792Z,0.30
2023-03-26T21:49:28.547Z,0.75
2023-03-26T21:51:57.566Z,0.93
2023-03-26T21:54:27.430Z,0.50
2023-03-26T21:57:10.288Z,0.30
2023-03-26T21:59:47.166Z,0.57
2023-03-26T22:03:01.511Z,0.50
2023-03-26T22:06:06.375Z,0.60
2023-03-26T22:08:40.814Z,0.65
2023-03-26T22:11:10.812Z,0.30
2023-03-26T22:13:38.878Z,0.70
2023-03-26T22:16:11.934Z,0.40
2023-03-26T22:18:40.448Z,0.20
2023-03-26T22:21:09.218Z,0.38
2023-03-26T22:23:35.599Z,0.40
2023-03-26T22:26:03.164Z,0.50
2023-03-26T22:28:30.395Z,0.60
2023-03-26T22:30:56.966Z,0.40
2023-03-26T22:33:25.631Z,0.73
2023-03-26T22:35:53.185Z,0.20
2023-03-26T22:38:21.898Z,0.60
2023-03-26T22:40:55.382Z,0.20
2023-03-26T22:43:21.792Z,0.60
2023-03-26T22:45:51.841Z,0.70
2023-03-26T22:48:23.163Z,0.10
2023-03-26T22:51:01.223Z,0.60
2023-03-26T22:53:27.942Z,0.30
2023-03-26T22:55:56.465Z,0.20
2023-03-26T22:58:22.883Z,0.50
2023-03-26T23:00:51.522Z,0.63
2023-03-26T23:03:20.839Z,0.20
2023-03-26T23:06:06.666Z,0.70
2023-03-26T23:08:34.276Z,0.20
2023-03-26T23:11:01.714Z,0.77
2023-03-26T23:13:35.019Z,0.30
2023-03-26T23:16:01.474Z,0.70
2023-03-26T23:18:28.908Z,0.32
2023-03-26T23:20:58.256Z,0.43
2023-03-26T23:23:34.692Z,0.40
2023-03-26T23:26:03.541Z,0.30
2023-03-26T23:28:31.471Z,0.70
2023-03-26T23:31:01.448Z,0.47
2023-03-26T23:33:32.747Z,0.25
2023-03-26T23:36:00.338Z,0.40
2023-03-26T23:38:43.452Z,0.55
2023-03-26T23:41:11.024Z,0.20
2023-03-26T23:43:37.307Z,0.30
2023-03-26T23:46:03.694Z,0.43
2023-03-26T23:48:30.053Z,0.47
2023-03-26T23:51:03.193Z,0.35
2023-03-26T23:53:31.616Z,0.60
2023-03-26T23:55:58.620Z,0.50
2023-03-26T23:58:28.110Z,0.70
